sensor_id;sensor_type;location;lat;lon;timestamp;temperature;humidity
27072;DHT22;14613;46.308;25.288;2023-04-24T00:00:15;11.10;62.00
27072;DHT22;14613;46.308;25.288;2023-04-24T00:02:42;11.00;62.00
27072;DHT22;14613;46.308;25.288;2023-04-24T00:05:12;11.00;62.10
27072;DHT22;14613;46.308;25.288;2023-04-24T00:07:39;11.00;62.30
27072;DHT22;14613;46.308;25.288;2023-04-24T00:10:06;10.90;62.30
27072;DHT22;14613;46.308;25.288;2023-04-24T00:12:32;10.90;62.50
27072;DHT22;14613;46.308;25.288;2023-04-24T00:14:59;10.80;62.60
27072;DHT22;14613;46.308;25.288;2023-04-24T00:17:25;10.80;62.80
27072;DHT22;14613;46.308;25.288;2023-04-24T00:19:51;10.70;62.90
27072;DHT22;14613;46.308;25.288;2023-04-24T00:22:17;10.70;62.90
27072;DHT22;14613;46.308;25.288;2023-04-24T00:24:43;10.70;63.00
27072;DHT22;14613;46.308;25.288;2023-04-24T00:27:09;10.70;63.20
27072;DHT22;14613;46.308;25.288;2023-04-24T00:29:35;10.70;63.10
27072;DHT22;14613;46.308;25.288;2023-04-24T00:32:01;10.70;63.20
27072;DHT22;14613;46.308;25.288;2023-04-24T00:34:26;10.70;63.20
27072;DHT22;14613;46.308;25.288;2023-04-24T00:36:52;10.70;64.10
27072;DHT22;14613;46.308;25.288;2023-04-24T00:39:19;10.70;63.20
27072;DHT22;14613;46.308;25.288;2023-04-24T00:41:45;10.70;63.40
27072;DHT22;14613;46.308;25.288;2023-04-24T00:44:11;10.70;63.40
27072;DHT22;14613;46.308;25.288;2023-04-24T00:46:37;10.70;63.50
27072;DHT22;14613;46.308;25.288;2023-04-24T00:49:04;10.70;63.50
27072;DHT22;14613;46.308;25.288;2023-04-24T00:51:31;10.70;63.50
27072;DHT22;14613;46.308;25.288;2023-04-24T00:53:58;10.70;63.70
27072;DHT22;14613;46.308;25.288;2023-04-24T00:56:25;10.60;63.80
27072;DHT22;14613;46.308;25.288;2023-04-24T00:58:51;10.50;64.00
27072;DHT22;14613;46.308;25.288;2023-04-24T01:01:20;10.50;64.00
27072;DHT22;14613;46.308;25.288;2023-04-24T01:03:48;10.50;64.10
27072;DHT22;14613;46.308;25.288;2023-04-24T01:06:14;10.50;64.10
27072;DHT22;14613;46.308;25.288;2023-04-24T01:08:41;10.50;64.20
27072;DHT22;14613;46.308;25.288;2023-04-24T01:11:07;10.40;64.10
27072;DHT22;14613;46.308;25.288;2023-04-24T01:13:33;10.40;64.20
27072;DHT22;14613;46.308;25.288;2023-04-24T01:16:00;10.40;64.20
27072;DHT22;14613;46.308;25.288;2023-04-24T01:18:26;10.40;64.20
27072;DHT22;14613;46.308;25.288;2023-04-24T01:20:54;10.40;64.20
27072;DHT22;14613;46.308;25.288;2023-04-24T01:23:22;10.40;64.30
27072;DHT22;14613;46.308;25.288;2023-04-24T01:25:49;10.30;64.40
27072;DHT22;14613;46.308;25.288;2023-04-24T01:28:15;10.30;64.50
27072;DHT22;14613;46.308;25.288;2023-04-24T01:30:41;10.20;64.50
27072;DHT22;14613;46.308;25.288;2023-04-24T01:33:08;10.20;65.40
27072;DHT22;14613;46.308;25.288;2023-04-24T01:35:33;10.10;64.60
27072;DHT22;14613;46.308;25.288;2023-04-24T01:38:01;10.10;64.80
27072;DHT22;14613;46.308;25.288;2023-04-24T01:40:27;10.00;64.80
27072;DHT22;14613;46.308;25.288;2023-04-24T01:42:53;10.00;64.80
27072;DHT22;14613;46.308;25.288;2023-04-24T01:45:19;9.90;64.90
27072;DHT22;14613;46.308;25.288;2023-04-24T01:47:45;9.90;65.00
27072;DHT22;14613;46.308;25.288;2023-04-24T01:50:12;9.90;65.00
27072;DHT22;14613;46.308;25.288;2023-04-24T01:52:38;9.90;65.00
27072;DHT22;14613;46.308;25.288;2023-04-24T01:55:04;9.80;64.90
27072;DHT22;14613;46.308;25.288;2023-04-24T01:57:31;9.80;64.90
27072;DHT22;14613;46.308;25.288;2023-04-24T01:59:57;9.80;65.00
27072;DHT22;14613;46.308;25.288;2023-04-24T02:02:24;9.70;65.00
27072;DHT22;14613;46.308;25.288;2023-04-24T02:04:50;9.70;65.10
27072;DHT22;14613;46.308;25.288;2023-04-24T02:07:16;9.50;65.20
27072;DHT22;14613;46.308;25.288;2023-04-24T02:09:42;9.50;65.50
27072;DHT22;14613;46.308;25.288;2023-04-24T02:12:07;9.40;65.70
27072;DHT22;14613;46.308;25.288;2023-04-24T02:14:33;9.30;65.70
27072;DHT22;14613;46.308;25.288;2023-04-24T02:16:59;9.30;65.90
27072;DHT22;14613;46.308;25.288;2023-04-24T02:19:26;9.20;65.90
27072;DHT22;14613;46.308;25.288;2023-04-24T02:21:52;9.20;65.90
27072;DHT22;14613;46.308;25.288;2023-04-24T02:24:18;9.10;66.00
27072;DHT22;14613;46.308;25.288;2023-04-24T02:26:43;9.10;66.10
27072;DHT22;14613;46.308;25.288;2023-04-24T02:29:09;9.00;66.20
27072;DHT22;14613;46.308;25.288;2023-04-24T02:31:37;8.90;66.50
27072;DHT22;14613;46.308;25.288;2023-04-24T02:34:03;8.80;66.70
27072;DHT22;14613;46.308;25.288;2023-04-24T02:36:29;8.80;66.80
27072;DHT22;14613;46.308;25.288;2023-04-24T02:38:55;8.70;66.80
27072;DHT22;14613;46.308;25.288;2023-04-24T02:41:22;8.70;66.90
27072;DHT22;14613;46.308;25.288;2023-04-24T02:43:47;8.60;66.90
27072;DHT22;14613;46.308;25.288;2023-04-24T02:46:13;8.70;67.00
27072;DHT22;14613;46.308;25.288;2023-04-24T02:48:39;8.60;67.00
27072;DHT22;14613;46.308;25.288;2023-04-24T02:51:05;8.60;67.10
27072;DHT22;14613;46.308;25.288;2023-04-24T02:53:32;8.60;67.10
27072;DHT22;14613;46.308;25.288;2023-04-24T02:55:58;8.60;67.10
27072;DHT22;14613;46.308;25.288;2023-04-24T02:58:24;8.60;67.10
27072;DHT22;14613;46.308;25.288;2023-04-24T03:00:54;8.60;67.20
27072;DHT22;14613;46.308;25.288;2023-04-24T03:03:21;8.60;67.20
27072;DHT22;14613;46.308;25.288;2023-04-24T03:05:46;8.60;67.40
27072;DHT22;14613;46.308;25.288;2023-04-24T03:08:12;8.60;67.40
27072;DHT22;14613;46.308;25.288;2023-04-24T03:10:40;8.60;67.40
27072;DHT22;14613;46.308;25.288;2023-04-24T03:13:05;8.60;67.40
27072;DHT22;14613;46.308;25.288;2023-04-24T03:15:31;8.60;67.40
27072;DHT22;14613;46.308;25.288;2023-04-24T03:17:57;8.60;67.50
27072;DHT22;14613;46.308;25.288;2023-04-24T03:20:23;8.70;67.50
27072;DHT22;14613;46.308;25.288;2023-04-24T03:22:49;8.70;67.50
27072;DHT22;14613;46.308;25.288;2023-04-24T03:25:15;8.70;67.50
27072;DHT22;14613;46.308;25.288;2023-04-24T03:27:41;8.70;67.60
27072;DHT22;14613;46.308;25.288;2023-04-24T03:30:10;8.70;67.70
27072;DHT22;14613;46.308;25.288;2023-04-24T03:32:39;8.70;67.70
27072;DHT22;14613;46.308;25.288;2023-04-24T03:35:06;8.70;67.70
27072;DHT22;14613;46.308;25.288;2023-04-24T03:37:33;8.70;67.80
27072;DHT22;14613;46.308;25.288;2023-04-24T03:39:59;8.70;68.00
27072;DHT22;14613;46.308;25.288;2023-04-24T03:42:25;8.80;68.40
27072;DHT22;14613;46.308;25.288;2023-04-24T03:44:51;8.90;68.70
27072;DHT22;14613;46.308;25.288;2023-04-24T03:47:41;9.10;69.00
27072;DHT22;14613;46.308;25.288;2023-04-24T03:50:06;9.30;69.00
27072;DHT22;14613;46.308;25.288;2023-04-24T03:52:32;9.50;68.80
27072;DHT22;14613;46.308;25.288;2023-04-24T03:54:58;9.60;68.40
27072;DHT22;14613;46.308;25.288;2023-04-24T03:57:24;9.60;68.10
27072;DHT22;14613;46.308;25.288;2023-04-24T03:59:50;9.70;68.10
27072;DHT22;14613;46.308;25.288;2023-04-24T04:02:16;9.70;68.00
27072;DHT22;14613;46.308;25.288;2023-04-24T04:04:42;9.70;67.90
27072;DHT22;14613;46.308;25.288;2023-04-24T04:07:08;9.70;67.80
27072;DHT22;14613;46.308;25.288;2023-04-24T04:09:34;9.80;67.80
27072;DHT22;14613;46.308;25.288;2023-04-24T04:12:00;9.80;67.80
27072;DHT22;14613;46.308;25.288;2023-04-24T04:14:27;9.80;67.70
27072;DHT22;14613;46.308;25.288;2023-04-24T04:16:52;9.80;67.60
27072;DHT22;14613;46.308;25.288;2023-04-24T04:19:18;9.90;67.70
27072;DHT22;14613;46.308;25.288;2023-04-24T04:21:44;9.90;67.50
27072;DHT22;14613;46.308;25.288;2023-04-24T04:24:11;10.00;67.50
27072;DHT22;14613;46.308;25.288;2023-04-24T04:26:38;10.00;67.50
27072;DHT22;14613;46.308;25.288;2023-04-24T04:29:04;10.10;67.60
27072;DHT22;14613;46.308;25.288;2023-04-24T04:31:30;10.10;67.50
27072;DHT22;14613;46.308;25.288;2023-04-24T04:33:56;10.20;67.70
27072;DHT22;14613;46.308;25.288;2023-04-24T04:36:22;10.40;68.10
27072;DHT22;14613;46.308;25.288;2023-04-24T04:38:49;10.70;67.90
27072;DHT22;14613;46.308;25.288;2023-04-24T04:41:15;10.80;67.80
27072;DHT22;14613;46.308;25.288;2023-04-24T04:43:42;11.10;67.90
27072;DHT22;14613;46.308;25.288;2023-04-24T04:46:08;11.20;67.50
27072;DHT22;14613;46.308;25.288;2023-04-24T04:48:36;11.40;67.50
27072;DHT22;14613;46.308;25.288;2023-04-24T04:51:02;11.50;67.30
27072;DHT22;14613;46.308;25.288;2023-04-24T04:53:28;11.50;67.10
27072;DHT22;14613;46.308;25.288;2023-04-24T04:55:54;11.60;66.90
27072;DHT22;14613;46.308;25.288;2023-04-24T04:58:20;11.70;67.00
27072;DHT22;14613;46.308;25.288;2023-04-24T05:00:45;11.80;67.00
27072;DHT22;14613;46.308;25.288;2023-04-24T05:03:11;11.90;67.00
27072;DHT22;14613;46.308;25.288;2023-04-24T05:05:37;12.00;67.00
27072;DHT22;14613;46.308;25.288;2023-04-24T05:08:07;12.10;67.00
27072;DHT22;14613;46.308;25.288;2023-04-24T05:10:33;12.40;67.70
27072;DHT22;14613;46.308;25.288;2023-04-24T05:12:59;12.70;67.80
27072;DHT22;14613;46.308;25.288;2023-04-24T05:15:25;13.20;67.50
27072;DHT22;14613;46.308;25.288;2023-04-24T05:17:50;13.50;66.90
27072;DHT22;14613;46.308;25.288;2023-04-24T05:20:16;13.90;66.50
27072;DHT22;14613;46.308;25.288;2023-04-24T05:22:43;14.30;66.40
27072;DHT22;14613;46.308;25.288;2023-04-24T05:25:09;14.70;65.80
27072;DHT22;14613;46.308;25.288;2023-04-24T05:27:35;15.10;65.20
27072;DHT22;14613;46.308;25.288;2023-04-24T05:30:00;15.40;64.50
27072;DHT22;14613;46.308;25.288;2023-04-24T05:32:26;15.80;64.70
27072;DHT22;14613;46.308;25.288;2023-04-24T05:34:52;16.10;63.40
27072;DHT22;14613;46.308;25.288;2023-04-24T05:37:18;16.40;63.00
27072;DHT22;14613;46.308;25.288;2023-04-24T05:39:44;16.80;62.50
27072;DHT22;14613;46.308;25.288;2023-04-24T05:42:10;17.20;61.90
27072;DHT22;14613;46.308;25.288;2023-04-24T05:44:36;17.50;61.30
27072;DHT22;14613;46.308;25.288;2023-04-24T05:47:01;17.80;60.70
27072;DHT22;14613;46.308;25.288;2023-04-24T05:49:27;18.10;60.20
27072;DHT22;14613;46.308;25.288;2023-04-24T05:51:53;18.50;59.80
27072;DHT22;14613;46.308;25.288;2023-04-24T05:54:19;18.90;59.30
27072;DHT22;14613;46.308;25.288;2023-04-24T05:56:45;19.30;58.60
27072;DHT22;14613;46.308;25.288;2023-04-24T05:59:10;19.60;58.50
27072;DHT22;14613;46.308;25.288;2023-04-24T06:01:36;19.90;57.90
27072;DHT22;14613;46.308;25.288;2023-04-24T06:04:03;20.20;57.30
27072;DHT22;14613;46.308;25.288;2023-04-24T06:06:29;20.50;56.90
27072;DHT22;14613;46.308;25.288;2023-04-24T06:08:55;20.80;56.50
27072;DHT22;14613;46.308;25.288;2023-04-24T06:11:22;21.00;55.80
27072;DHT22;14613;46.308;25.288;2023-04-24T06:13:48;21.30;55.40
27072;DHT22;14613;46.308;25.288;2023-04-24T06:16:14;21.60;55.00
27072;DHT22;14613;46.308;25.288;2023-04-24T06:18:40;21.80;54.70
27072;DHT22;14613;46.308;25.288;2023-04-24T06:21:06;22.10;54.30
27072;DHT22;14613;46.308;25.288;2023-04-24T06:23:32;22.40;54.00
27072;DHT22;14613;46.308;25.288;2023-04-24T06:25:59;22.60;53.50
27072;DHT22;14613;46.308;25.288;2023-04-24T06:28:25;22.70;53.00
27072;DHT22;14613;46.308;25.288;2023-04-24T06:30:51;22.90;52.60
27072;DHT22;14613;46.308;25.288;2023-04-24T06:33:16;23.10;52.30
27072;DHT22;14613;46.308;25.288;2023-04-24T06:35:42;23.30;52.00
27072;DHT22;14613;46.308;25.288;2023-04-24T06:38:08;23.40;51.30
27072;DHT22;14613;46.308;25.288;2023-04-24T06:40:34;23.50;50.90
27072;DHT22;14613;46.308;25.288;2023-04-24T06:43:00;23.50;50.60
27072;DHT22;14613;46.308;25.288;2023-04-24T06:45:28;23.70;50.70
27072;DHT22;14613;46.308;25.288;2023-04-24T06:47:55;23.90;50.60
27072;DHT22;14613;46.308;25.288;2023-04-24T06:50:21;24.20;50.50
27072;DHT22;14613;46.308;25.288;2023-04-24T06:52:47;24.30;49.90
27072;DHT22;14613;46.308;25.288;2023-04-24T06:55:13;24.50;49.60
27072;DHT22;14613;46.308;25.288;2023-04-24T06:57:40;24.60;49.30
27072;DHT22;14613;46.308;25.288;2023-04-24T07:00:07;24.70;49.00
27072;DHT22;14613;46.308;25.288;2023-04-24T07:02:34;24.90;49.00
27072;DHT22;14613;46.308;25.288;2023-04-24T07:05:00;24.90;48.70
27072;DHT22;14613;46.308;25.288;2023-04-24T07:07:27;25.10;49.20
27072;DHT22;14613;46.308;25.288;2023-04-24T07:09:53;25.20;48.30
27072;DHT22;14613;46.308;25.288;2023-04-24T07:12:19;25.40;48.20
27072;DHT22;14613;46.308;25.288;2023-04-24T07:14:48;25.40;48.00
27072;DHT22;14613;46.308;25.288;2023-04-24T07:17:14;25.40;47.30
27072;DHT22;14613;46.308;25.288;2023-04-24T07:19:40;25.30;47.00
27072;DHT22;14613;46.308;25.288;2023-04-24T07:22:06;25.20;47.10
27072;DHT22;14613;46.308;25.288;2023-04-24T07:24:32;25.10;46.90
27072;DHT22;14613;46.308;25.288;2023-04-24T07:26:58;25.00;47.00
27072;DHT22;14613;46.308;25.288;2023-04-24T07:29:24;25.00;47.00
27072;DHT22;14613;46.308;25.288;2023-04-24T07:31:50;24.90;47.10
27072;DHT22;14613;46.308;25.288;2023-04-24T07:34:16;24.90;47.30
27072;DHT22;14613;46.308;25.288;2023-04-24T07:36:42;24.90;47.40
27072;DHT22;14613;46.308;25.288;2023-04-24T07:39:08;24.80;47.10
27072;DHT22;14613;46.308;25.288;2023-04-24T07:41:34;24.70;47.30
27072;DHT22;14613;46.308;25.288;2023-04-24T07:44:00;24.70;47.50
27072;DHT22;14613;46.308;25.288;2023-04-24T07:46:26;24.70;47.60
27072;DHT22;14613;46.308;25.288;2023-04-24T07:48:55;24.80;47.60
27072;DHT22;14613;46.308;25.288;2023-04-24T07:51:21;24.90;47.50
27072;DHT22;14613;46.308;25.288;2023-04-24T07:53:47;25.10;47.30
27072;DHT22;14613;46.308;25.288;2023-04-24T07:56:13;25.20;46.80
27072;DHT22;14613;46.308;25.288;2023-04-24T07:58:39;25.40;46.50
27072;DHT22;14613;46.308;25.288;2023-04-24T08:01:05;25.50;46.50
27072;DHT22;14613;46.308;25.288;2023-04-24T08:03:31;25.50;46.40
27072;DHT22;14613;46.308;25.288;2023-04-24T08:05:57;25.50;46.40
27072;DHT22;14613;46.308;25.288;2023-04-24T08:08:22;25.50;46.40
27072;DHT22;14613;46.308;25.288;2023-04-24T08:10:49;25.50;46.30
27072;DHT22;14613;46.308;25.288;2023-04-24T08:13:15;25.50;46.20
27072;DHT22;14613;46.308;25.288;2023-04-24T08:15:41;25.50;46.10
27072;DHT22;14613;46.308;25.288;2023-04-24T08:18:07;25.60;45.90
27072;DHT22;14613;46.308;25.288;2023-04-24T08:20:33;25.70;45.80
27072;DHT22;14613;46.308;25.288;2023-04-24T08:22:58;25.80;45.60
27072;DHT22;14613;46.308;25.288;2023-04-24T08:25:24;25.90;45.00
27072;DHT22;14613;46.308;25.288;2023-04-24T08:27:51;25.80;44.90
27072;DHT22;14613;46.308;25.288;2023-04-24T08:30:17;25.80;45.00
27072;DHT22;14613;46.308;25.288;2023-04-24T08:32:43;25.80;44.80
27072;DHT22;14613;46.308;25.288;2023-04-24T08:35:09;25.80;44.70
27072;DHT22;14613;46.308;25.288;2023-04-24T08:37:35;25.70;44.30
27072;DHT22;14613;46.308;25.288;2023-04-24T08:40:06;25.60;44.20
27072;DHT22;14613;46.308;25.288;2023-04-24T08:42:33;25.60;44.30
27072;DHT22;14613;46.308;25.288;2023-04-24T08:45:01;25.50;44.20
27072;DHT22;14613;46.308;25.288;2023-04-24T08:47:29;25.60;44.30
27072;DHT22;14613;46.308;25.288;2023-04-24T08:49:56;25.80;44.20
27072;DHT22;14613;46.308;25.288;2023-04-24T08:52:25;25.90;44.10
27072;DHT22;14613;46.308;25.288;2023-04-24T08:54:52;25.90;44.20
27072;DHT22;14613;46.308;25.288;2023-04-24T08:57:19;25.80;43.80
27072;DHT22;14613;46.308;25.288;2023-04-24T08:59:45;25.80;43.80
27072;DHT22;14613;46.308;25.288;2023-04-24T09:02:12;25.70;43.20
27072;DHT22;14613;46.308;25.288;2023-04-24T09:04:40;25.60;43.20
27072;DHT22;14613;46.308;25.288;2023-04-24T09:07:06;25.50;42.80
27072;DHT22;14613;46.308;25.288;2023-04-24T09:09:34;25.50;43.10
27072;DHT22;14613;46.308;25.288;2023-04-24T09:12:01;25.60;43.10
27072;DHT22;14613;46.308;25.288;2023-04-24T09:14:29;25.60;43.20
27072;DHT22;14613;46.308;25.288;2023-04-24T09:16:57;25.60;44.20
27072;DHT22;14613;46.308;25.288;2023-04-24T09:19:23;25.80;43.60
27072;DHT22;14613;46.308;25.288;2023-04-24T09:21:49;25.90;43.50
27072;DHT22;14613;46.308;25.288;2023-04-24T09:24:17;26.00;43.50
27072;DHT22;14613;46.308;25.288;2023-04-24T09:26:45;26.30;43.60
27072;DHT22;14613;46.308;25.288;2023-04-24T09:29:18;26.50;43.40
27072;DHT22;14613;46.308;25.288;2023-04-24T09:31:45;26.70;43.00
27072;DHT22;14613;46.308;25.288;2023-04-24T09:34:11;26.90;42.90
27072;DHT22;14613;46.308;25.288;2023-04-24T09:36:39;26.90;42.90
27072;DHT22;14613;46.308;25.288;2023-04-24T09:39:08;26.80;42.80
27072;DHT22;14613;46.308;25.288;2023-04-24T09:41:50;26.90;42.60
27072;DHT22;14613;46.308;25.288;2023-04-24T09:44:23;26.80;42.10
27072;DHT22;14613;46.308;25.288;2023-04-24T09:46:52;26.60;41.80
27072;DHT22;14613;46.308;25.288;2023-04-24T09:51:52;26.40;42.40
27072;DHT22;14613;46.308;25.288;2023-04-24T09:54:27;26.50;42.30
27072;DHT22;14613;46.308;25.288;2023-04-24T09:56:54;26.60;42.30
27072;DHT22;14613;46.308;25.288;2023-04-24T09:59:21;26.70;42.10
27072;DHT22;14613;46.308;25.288;2023-04-24T10:01:47;26.70;41.80
27072;DHT22;14613;46.308;25.288;2023-04-24T10:04:26;26.70;41.60
27072;DHT22;14613;46.308;25.288;2023-04-24T10:06:54;26.70;41.50
27072;DHT22;14613;46.308;25.288;2023-04-24T10:09:23;26.70;41.50
27072;DHT22;14613;46.308;25.288;2023-04-24T10:11:51;26.80;41.50
27072;DHT22;14613;46.308;25.288;2023-04-24T10:14:27;26.80;41.30
27072;DHT22;14613;46.308;25.288;2023-04-24T10:16:55;26.90;41.30
27072;DHT22;14613;46.308;25.288;2023-04-24T10:19:25;27.10;41.20
27072;DHT22;14613;46.308;25.288;2023-04-24T10:21:52;27.20;40.90
27072;DHT22;14613;46.308;25.288;2023-04-24T10:24:20;27.30;41.00
27072;DHT22;14613;46.308;25.288;2023-04-24T10:26:48;27.40;40.90
27072;DHT22;14613;46.308;25.288;2023-04-24T10:29:16;27.60;40.90
27072;DHT22;14613;46.308;25.288;2023-04-24T10:31:43;27.80;40.60
27072;DHT22;14613;46.308;25.288;2023-04-24T10:34:11;27.90;40.60
27072;DHT22;14613;46.308;25.288;2023-04-24T10:36:43;28.10;40.20
27072;DHT22;14613;46.308;25.288;2023-04-24T10:39:13;28.10;39.80
27072;DHT22;14613;46.308;25.288;2023-04-24T10:41:42;28.00;39.80
27072;DHT22;14613;46.308;25.288;2023-04-24T10:44:13;27.90;40.00
27072;DHT22;14613;46.308;25.288;2023-04-24T10:46:44;27.90;40.00
27072;DHT22;14613;46.308;25.288;2023-04-24T10:49:10;27.90;39.40
27072;DHT22;14613;46.308;25.288;2023-04-24T10:51:50;27.80;39.50
27072;DHT22;14613;46.308;25.288;2023-04-24T10:54:30;27.90;39.40
27072;DHT22;14613;46.308;25.288;2023-04-24T11:00:20;28.20;39.60
27072;DHT22;14613;46.308;25.288;2023-04-24T11:02:47;28.20;38.80
27072;DHT22;14613;46.308;25.288;2023-04-24T11:05:19;27.90;38.20
27072;DHT22;14613;46.308;25.288;2023-04-24T11:08:14;27.70;38.40
27072;DHT22;14613;46.308;25.288;2023-04-24T11:10:45;27.70;38.40
27072;DHT22;14613;46.308;25.288;2023-04-24T11:13:15;27.60;39.00
27072;DHT22;14613;46.308;25.288;2023-04-24T11:15:42;27.60;38.20
27072;DHT22;14613;46.308;25.288;2023-04-24T11:18:14;27.50;37.70
27072;DHT22;14613;46.308;25.288;2023-04-24T11:20:44;27.40;38.00
27072;DHT22;14613;46.308;25.288;2023-04-24T11:23:12;27.40;38.30
27072;DHT22;14613;46.308;25.288;2023-04-24T11:25:38;27.50;38.40
27072;DHT22;14613;46.308;25.288;2023-04-24T11:28:05;27.50;38.30
27072;DHT22;14613;46.308;25.288;2023-04-24T11:30:32;27.80;38.00
27072;DHT22;14613;46.308;25.288;2023-04-24T11:33:05;27.80;37.50
27072;DHT22;14613;46.308;25.288;2023-04-24T11:35:36;27.80;37.40
27072;DHT22;14613;46.308;25.288;2023-04-24T11:38:04;28.00;37.30
27072;DHT22;14613;46.308;25.288;2023-04-24T11:40:30;28.10;37.20
27072;DHT22;14613;46.308;25.288;2023-04-24T11:42:56;28.00;36.90
27072;DHT22;14613;46.308;25.288;2023-04-24T11:45:29;28.00;37.00
27072;DHT22;14613;46.308;25.288;2023-04-24T11:47:55;27.90;36.90
27072;DHT22;14613;46.308;25.288;2023-04-24T11:50:24;27.80;36.90
27072;DHT22;14613;46.308;25.288;2023-04-24T11:52:54;27.80;37.10
27072;DHT22;14613;46.308;25.288;2023-04-24T11:57:52;27.90;37.30
27072;DHT22;14613;46.308;25.288;2023-04-24T12:02:49;28.00;38.00
27072;DHT22;14613;46.308;25.288;2023-04-24T12:05:24;27.90;38.10
27072;DHT22;14613;46.308;25.288;2023-04-24T12:07:51;27.90;37.60
27072;DHT22;14613;46.308;25.288;2023-04-24T12:10:25;27.80;37.40
27072;DHT22;14613;46.308;25.288;2023-04-24T12:12:52;27.70;37.10
27072;DHT22;14613;46.308;25.288;2023-04-24T12:15:19;27.60;37.10
27072;DHT22;14613;46.308;25.288;2023-04-24T12:17:46;27.40;37.10
27072;DHT22;14613;46.308;25.288;2023-04-24T12:20:13;27.30;37.10
27072;DHT22;14613;46.308;25.288;2023-04-24T12:22:49;27.30;37.40
27072;DHT22;14613;46.308;25.288;2023-04-24T12:25:17;27.40;37.50
27072;DHT22;14613;46.308;25.288;2023-04-24T12:27:44;27.50;37.60
27072;DHT22;14613;46.308;25.288;2023-04-24T12:30:15;27.50;37.70
27072;DHT22;14613;46.308;25.288;2023-04-24T12:32:48;27.50;37.60
27072;DHT22;14613;46.308;25.288;2023-04-24T12:35:27;27.60;37.50
27072;DHT22;14613;46.308;25.288;2023-04-24T12:37:53;27.50;37.40
27072;DHT22;14613;46.308;25.288;2023-04-24T12:40:20;27.50;37.60
27072;DHT22;14613;46.308;25.288;2023-04-24T12:42:49;27.40;37.60
27072;DHT22;14613;46.308;25.288;2023-04-24T12:45:16;27.40;37.70
27072;DHT22;14613;46.308;25.288;2023-04-24T12:47:42;27.30;37.70
27072;DHT22;14613;46.308;25.288;2023-04-24T12:50:10;27.20;37.60
27072;DHT22;14613;46.308;25.288;2023-04-24T12:52:37;27.10;37.90
27072;DHT22;14613;46.308;25.288;2023-04-24T12:55:03;27.00;38.00
27072;DHT22;14613;46.308;25.288;2023-04-24T12:57:31;27.00;38.10
27072;DHT22;14613;46.308;25.288;2023-04-24T12:59:59;27.10;38.10
27072;DHT22;14613;46.308;25.288;2023-04-24T13:02:28;27.00;38.00
27072;DHT22;14613;46.308;25.288;2023-04-24T13:04:55;26.90;37.90
27072;DHT22;14613;46.308;25.288;2023-04-24T13:07:21;26.70;38.00
27072;DHT22;14613;46.308;25.288;2023-04-24T13:09:48;26.60;38.10
27072;DHT22;14613;46.308;25.288;2023-04-24T13:12:14;26.40;38.00
27072;DHT22;14613;46.308;25.288;2023-04-24T13:14:40;26.30;38.10
27072;DHT22;14613;46.308;25.288;2023-04-24T13:17:06;26.30;38.10
27072;DHT22;14613;46.308;25.288;2023-04-24T13:19:40;26.20;38.10
27072;DHT22;14613;46.308;25.288;2023-04-24T13:22:09;26.20;38.30
27072;DHT22;14613;46.308;25.288;2023-04-24T13:24:35;26.20;38.50
27072;DHT22;14613;46.308;25.288;2023-04-24T13:27:01;26.10;38.70
27072;DHT22;14613;46.308;25.288;2023-04-24T13:29:28;26.10;38.80
27072;DHT22;14613;46.308;25.288;2023-04-24T13:31:55;26.00;38.50
27072;DHT22;14613;46.308;25.288;2023-04-24T13:34:24;25.90;38.60
27072;DHT22;14613;46.308;25.288;2023-04-24T13:36:55;25.80;38.70
27072;DHT22;14613;46.308;25.288;2023-04-24T13:39:22;25.80;38.70
27072;DHT22;14613;46.308;25.288;2023-04-24T13:41:49;25.70;38.80
27072;DHT22;14613;46.308;25.288;2023-04-24T13:44:16;25.70;38.60
27072;DHT22;14613;46.308;25.288;2023-04-24T13:46:43;25.70;38.70
27072;DHT22;14613;46.308;25.288;2023-04-24T13:49:13;25.70;38.60
27072;DHT22;14613;46.308;25.288;2023-04-24T13:51:39;25.60;38.50
27072;DHT22;14613;46.308;25.288;2023-04-24T13:54:06;25.50;38.50
27072;DHT22;14613;46.308;25.288;2023-04-24T13:56:31;25.50;38.50
27072;DHT22;14613;46.308;25.288;2023-04-24T13:58:57;25.40;38.60
27072;DHT22;14613;46.308;25.288;2023-04-24T14:01:23;25.40;38.80
27072;DHT22;14613;46.308;25.288;2023-04-24T14:03:52;25.50;38.90
27072;DHT22;14613;46.308;25.288;2023-04-24T14:06:19;25.70;38.90
27072;DHT22;14613;46.308;25.288;2023-04-24T14:08:46;25.80;38.70
27072;DHT22;14613;46.308;25.288;2023-04-24T14:11:12;25.80;38.40
27072;DHT22;14613;46.308;25.288;2023-04-24T14:13:39;25.80;38.30
27072;DHT22;14613;46.308;25.288;2023-04-24T14:16:06;25.80;38.10
27072;DHT22;14613;46.308;25.288;2023-04-24T14:18:32;25.60;38.00
27072;DHT22;14613;46.308;25.288;2023-04-24T14:20:57;25.50;38.10
27072;DHT22;14613;46.308;25.288;2023-04-24T14:23:23;25.50;38.20
27072;DHT22;14613;46.308;25.288;2023-04-24T14:25:49;25.40;38.40
27072;DHT22;14613;46.308;25.288;2023-04-24T14:28:18;25.30;38.50
27072;DHT22;14613;46.308;25.288;2023-04-24T14:30:46;25.20;38.60
27072;DHT22;14613;46.308;25.288;2023-04-24T14:33:12;25.10;38.70
27072;DHT22;14613;46.308;25.288;2023-04-24T14:35:38;25.10;38.80
27072;DHT22;14613;46.308;25.288;2023-04-24T14:38:05;25.00;38.90
27072;DHT22;14613;46.308;25.288;2023-04-24T14:40:31;24.90;38.90
27072;DHT22;14613;46.308;25.288;2023-04-24T14:42:58;24.90;39.20
27072;DHT22;14613;46.308;25.288;2023-04-24T14:45:27;24.80;39.30
27072;DHT22;14613;46.308;25.288;2023-04-24T14:47:53;24.60;39.20
27072;DHT22;14613;46.308;25.288;2023-04-24T14:50:19;24.30;39.50
27072;DHT22;14613;46.308;25.288;2023-04-24T14:52:45;24.00;39.90
27072;DHT22;14613;46.308;25.288;2023-04-24T14:55:12;23.80;40.10
27072;DHT22;14613;46.308;25.288;2023-04-24T14:57:38;23.50;40.40
27072;DHT22;14613;46.308;25.288;2023-04-24T15:00:08;23.30;40.50
27072;DHT22;14613;46.308;25.288;2023-04-24T15:02:35;23.20;40.70
27072;DHT22;14613;46.308;25.288;2023-04-24T15:05:06;23.10;40.80
27072;DHT22;14613;46.308;25.288;2023-04-24T15:07:32;23.00;40.90
27072;DHT22;14613;46.308;25.288;2023-04-24T15:09:58;22.90;41.00
27072;DHT22;14613;46.308;25.288;2023-04-24T15:12:24;22.90;41.20
27072;DHT22;14613;46.308;25.288;2023-04-24T15:14:50;22.90;41.20
27072;DHT22;14613;46.308;25.288;2023-04-24T15:17:16;22.80;41.10
27072;DHT22;14613;46.308;25.288;2023-04-24T15:19:42;22.80;41.20
27072;DHT22;14613;46.308;25.288;2023-04-24T15:22:08;22.80;41.30
27072;DHT22;14613;46.308;25.288;2023-04-24T15:24:33;22.70;41.20
27072;DHT22;14613;46.308;25.288;2023-04-24T15:26:59;22.70;41.20